createdAt,value
2022-10-05T00:00:16.203Z,101455.59
2022-10-05T00:02:43.265Z,101450.28
2022-10-05T00:05:29.687Z,101441.19
2022-10-05T00:07:58.109Z,101441.56
2022-10-05T00:10:28.228Z,101449.22
2022-10-05T00:12:55.011Z,101439.19
2022-10-05T00:15:22.585Z,101441.44
2022-10-05T00:17:49.368Z,101447.06
2022-10-05T00:20:22.745Z,101455.84
2022-10-05T00:22:52.025Z,101445.91
2022-10-05T00:25:22.148Z,101438.94
2022-10-05T00:28:01.846Z,101438.72
2022-10-05T00:30:33.259Z,101439.53
2022-10-05T00:33:00.174Z,101438.84
2022-10-05T00:35:29.432Z,101431.41
2022-10-05T00:37:56.454Z,101433.25
2022-10-05T00:40:23.172Z,101431.88
2022-10-05T00:43:01.928Z,101431.19
2022-10-05T00:45:33.879Z,101427.91
2022-10-05T00:48:41.569Z,101433.91
2022-10-05T00:51:24.237Z,101426.47
2022-10-05T00:54:24.257Z,101432.53
2022-10-05T00:57:05.238Z,101421.50
2022-10-05T00:59:31.918Z,101426.34
2022-10-05T01:02:15.817Z,101420.59
2022-10-05T01:04:59.441Z,101422.41
2022-10-05T01:07:35.714Z,101432.53
2022-10-05T01:10:11.728Z,101434.25
2022-10-05T01:12:47.214Z,101428.09
2022-10-05T01:15:17.698Z,101424.56
2022-10-05T01:18:03.453Z,101427.22
2022-10-05T01:20:39.680Z,101419.88
2022-10-05T01:23:24.674Z,101417.34
2022-10-05T01:26:09.928Z,101418.47
2022-10-05T01:29:08.073Z,101416.03
2022-10-05T01:32:02.791Z,101412.88
2022-10-05T01:34:34.843Z,101408.00
2022-10-05T01:37:06.810Z,101396.78
2022-10-05T01:39:57.531Z,101389.38
2022-10-05T01:42:38.255Z,101393.03
2022-10-05T01:45:18.191Z,101390.00
2022-10-05T01:47:52.057Z,101387.13
2022-10-05T01:50:30.914Z,101378.97
2022-10-05T01:53:17.855Z,101376.03
2022-10-05T01:55:47.804Z,101368.00
2022-10-05T01:58:29.558Z,101372.81
2022-10-05T02:01:10.371Z,101383.78
2022-10-05T02:03:43.799Z,101373.34
2022-10-05T02:06:15.174Z,101370.94
2022-10-05T02:08:53.615Z,101366.81
2022-10-05T02:11:20.416Z,101366.28
2022-10-05T02:14:09.984Z,101353.56
2022-10-05T02:16:42.703Z,101356.78
2022-10-05T02:19:22.035Z,101351.63
2022-10-05T02:21:53.526Z,101350.78
2022-10-05T02:24:28.980Z,101342.47
2022-10-05T02:26:56.745Z,101344.84
2022-10-05T02:29:26.415Z,101340.94
2022-10-05T02:32:00.329Z,101346.53
2022-10-05T02:34:30.544Z,101342.13
2022-10-05T02:37:24.777Z,101340.16
2022-10-05T02:40:01.745Z,101334.94
2022-10-05T02:42:28.409Z,101330.47
2022-10-05T02:45:27.780Z,101331.91
2022-10-05T02:48:27.902Z,101329.31
2022-10-05T02:51:03.316Z,101330.66
2022-10-05T02:53:38.872Z,101331.78
2022-10-05T02:56:23.827Z,101323.78
2022-10-05T02:58:54.614Z,101319.13
2022-10-05T03:01:30.742Z,101318.22
2022-10-05T03:04:37.699Z,101314.50
2022-10-05T03:07:16.064Z,101310.19
2022-10-05T03:10:01.466Z,101313.69
2022-10-05T03:12:52.742Z,101311.91
2022-10-05T03:15:33.849Z,101318.66
2022-10-05T03:18:09.671Z,101306.88
2022-10-05T03:20:45.159Z,101312.47
2022-10-05T03:23:46.120Z,101311.53
2022-10-05T03:26:13.677Z,101309.75
2022-10-05T03:29:00.673Z,101312.66
2022-10-05T03:31:54.788Z,101304.78
2022-10-05T03:34:34.128Z,101307.34
2022-10-05T03:37:28.710Z,101310.09
2022-10-05T03:40:01.279Z,101305.13
2022-10-05T03:42:37.623Z,101305.75
2022-10-05T03:45:07.649Z,101295.81
2022-10-05T03:48:01.027Z,101299.34
2022-10-05T03:50:41.517Z,101287.19
2022-10-05T03:53:30.617Z,101290.03
2022-10-05T03:56:06.236Z,101304.59
2022-10-05T03:58:41.101Z,101294.91
2022-10-05T04:01:12.330Z,101288.06
2022-10-05T04:03:46.383Z,101283.47
2022-10-05T04:06:19.028Z,101291.81
2022-10-05T04:08:58.098Z,101294.47
2022-10-05T04:11:38.202Z,101284.47
2022-10-05T04:14:10.416Z,101292.81
2022-10-05T04:17:13.865Z,101288.88
2022-10-05T04:19:52.800Z,101283.59
2022-10-05T04:22:25.828Z,101284.31
2022-10-05T04:25:03.255Z,101286.03
2022-10-05T04:27:44.550Z,101288.75
2022-10-05T04:30:14.442Z,101285.38
2022-10-05T04:32:47.762Z,101296.06
2022-10-05T04:35:45.041Z,101296.25
2022-10-05T04:38:51.733Z,101286.63
2022-10-05T04:42:01.994Z,101281.97
2022-10-05T04:44:59.304Z,101282.50
2022-10-05T04:47:33.732Z,101277.06
2022-10-05T04:50:18.124Z,101280.13
2022-10-05T04:53:33.852Z,101268.44
2022-10-05T04:56:16.508Z,101258.03
2022-10-05T04:58:56.716Z,101257.09
2022-10-05T05:01:23.684Z,101265.78
2022-10-05T05:04:19.796Z,101256.25
2022-10-05T05:06:56.325Z,101248.00
2022-10-05T05:09:41.914Z,101244.34
2022-10-05T05:12:28.570Z,101248.25
2022-10-05T05:15:04.405Z,101253.84
2022-10-05T05:18:18.925Z,101246.13
2022-10-05T05:20:57.621Z,101230.25
2022-10-05T05:23:41.769Z,101235.72
2022-10-05T05:26:39.113Z,101238.72
2022-10-05T05:29:23.658Z,101237.56
2022-10-05T05:32:12.564Z,101232.06
2022-10-05T05:34:47.506Z,101230.34
2022-10-05T05:37:32.981Z,101224.22
2022-10-05T05:40:16.623Z,101234.13
2022-10-05T05:42:50.741Z,101230.63
2022-10-05T05:45:46.987Z,101223.41
2022-10-05T05:48:22.399Z,101222.06
2022-10-05T05:50:59.714Z,101216.91
2022-10-05T05:53:35.107Z,101219.00
2022-10-05T05:56:10.134Z,101212.56
2022-10-05T05:58:45.606Z,101215.00
2022-10-05T06:01:34.068Z,101210.53
2022-10-05T06:04:12.997Z,101214.44
2022-10-05T06:06:52.590Z,101216.00
2022-10-05T06:09:39.622Z,101212.25
2022-10-05T06:12:37.883Z,101222.97
2022-10-05T06:15:26.497Z,101226.63
2022-10-05T06:17:56.990Z,101221.28
2022-10-05T06:20:37.088Z,101217.38
2022-10-05T06:23:10.732Z,101220.84
2022-10-05T06:26:14.173Z,101223.78
2022-10-05T06:28:43.231Z,101226.47
2022-10-05T06:32:08.497Z,101229.16
2022-10-05T06:35:06.983Z,101220.34
2022-10-05T06:37:56.816Z,101219.00
2022-10-05T06:40:45.429Z,101208.72
2022-10-05T06:43:28.408Z,101224.34
2022-10-05T06:46:45.183Z,101231.44
2022-10-05T06:50:04.221Z,101222.09
2022-10-05T06:53:08.394Z,101221.16
2022-10-05T06:55:56.464Z,101222.75
2022-10-05T06:58:44.390Z,101224.22
2022-10-05T07:01:26.419Z,101223.22
2022-10-05T07:04:05.405Z,101221.13
2022-10-05T07:06:41.932Z,101220.91
2022-10-05T07:09:33.131Z,101224.00
2022-10-05T07:12:31.532Z,101225.47
2022-10-05T07:15:41.749Z,101213.28
2022-10-05T07:18:47.073Z,101222.94
2022-10-05T07:21:27.206Z,101223.22
2022-10-05T07:24:36.080Z,101221.75
2022-10-05T07:27:14.935Z,101224.19
2022-10-05T07:29:56.842Z,101230.47
2022-10-05T07:32:35.717Z,101220.59
2022-10-05T07:35:10.058Z,101218.88
2022-10-05T07:37:54.431Z,101220.94
2022-10-05T07:40:38.319Z,101212.47
2022-10-05T07:43:40.101Z,101223.44
2022-10-05T07:46:52.102Z,101226.25
2022-10-05T07:49:43.985Z,101218.53
2022-10-05T07:52:19.753Z,101222.06
2022-10-05T07:55:04.244Z,101226.41
2022-10-05T07:57:50.375Z,101221.44
2022-10-05T08:00:25.472Z,101225.44
2022-10-05T08:03:10.491Z,101220.50
2022-10-05T08:05:41.377Z,101218.41
2022-10-05T08:08:25.270Z,101212.25
2022-10-05T08:11:00.622Z,101227.63
2022-10-05T08:13:42.306Z,101215.06
2022-10-05T08:16:16.734Z,101220.69
2022-10-05T08:18:59.910Z,101213.34
2022-10-05T08:21:36.933Z,101225.09
2022-10-05T08:24:11.234Z,101217.22
2022-10-05T08:26:51.192Z,101223.16
2022-10-05T08:29:42.952Z,101211.63
2022-10-05T08:32:14.845Z,101210.09
2022-10-05T08:35:03.397Z,101210.38
2022-10-05T08:37:33.819Z,101208.09
2022-10-05T08:40:19.100Z,101201.56
2022-10-05T08:42:51.813Z,101194.00
2022-10-05T08:45:33.657Z,101203.44
2022-10-05T08:48:18.931Z,101204.28
2022-10-05T08:51:37.106Z,101200.41
2022-10-05T08:54:25.721Z,101201.38
2022-10-05T08:57:22.194Z,101199.81
2022-10-05T09:00:04.299Z,101199.53
2022-10-05T09:02:58.067Z,101195.81
2022-10-05T09:05:49.456Z,101194.06
2022-10-05T09:08:40.370Z,101190.06
2022-10-05T09:11:26.486Z,101197.59
2022-10-05T09:14:14.731Z,101197.22
2022-10-05T09:17:00.234Z,101204.75
2022-10-05T09:19:51.771Z,101199.53
2022-10-05T09:22:30.552Z,101201.09
2022-10-05T09:24:58.747Z,101192.88
2022-10-05T09:27:36.821Z,101201.50
2022-10-05T09:30:28.839Z,101192.38
2022-10-05T09:33:25.984Z,101196.00
2022-10-05T09:36:11.153Z,101192.56
2022-10-05T09:38:37.769Z,101191.19
2022-10-05T09:41:35.601Z,101180.25
2022-10-05T09:44:02.704Z,101190.13
2022-10-05T09:46:57.309Z,101191.66
2022-10-05T09:49:45.218Z,101173.44
2022-10-05T09:52:18.791Z,101165.91
2022-10-05T09:55:20.186Z,101171.41
2022-10-05T09:57:52.460Z,101162.09
2022-10-05T10:00:41.245Z,101155.97
2022-10-05T10:03:43.035Z,101155.72
2022-10-05T10:06:20.959Z,101151.78
2022-10-05T10:09:06.464Z,101143.94
2022-10-05T10:11:33.296Z,101144.59
2022-10-05T10:14:14.801Z,101133.53
2022-10-05T10:16:50.794Z,101127.97
2022-10-05T10:19:37.407Z,101131.75
2022-10-05T10:22:28.463Z,101123.28
2022-10-05T10:25:24.927Z,101122.34
2022-10-05T10:28:29.415Z,101113.56
2022-10-05T10:31:24.109Z,101127.69
2022-10-05T10:34:06.467Z,101118.00
2022-10-05T10:36:50.502Z,101110.81
2022-10-05T10:39:29.231Z,101115.84
2022-10-05T10:42:26.206Z,101115.53
2022-10-05T10:45:08.581Z,101113.13
2022-10-05T10:48:00.375Z,101111.56
2022-10-05T10:51:04.681Z,101112.13
2022-10-05T10:53:31.490Z,101110.41
2022-10-05T10:56:14.503Z,101109.25
2022-10-05T10:59:06.170Z,101101.06
2022-10-05T11:01:35.655Z,101100.97
2022-10-05T11:04:36.105Z,101107.53
2022-10-05T11:07:33.383Z,101109.75
2022-10-05T11:10:00.127Z,101092.41
2022-10-05T11:12:35.955Z,101101.06
2022-10-05T11:15:21.337Z,101099.91
2022-10-05T11:18:08.961Z,101091.53
2022-10-05T11:20:53.735Z,101085.81
2022-10-05T11:23:47.911Z,101092.09
2022-10-05T11:26:19.073Z,101078.19
2022-10-05T11:29:21.124Z,101082.63
2022-10-05T11:32:08.089Z,101071.75
2022-10-05T11:34:40.837Z,101077.00
2022-10-05T11:37:26.294Z,101073.41
2022-10-05T11:39:56.137Z,101080.03
2022-10-05T11:43:04.531Z,101061.34
2022-10-05T11:45:43.340Z,101067.13
2022-10-05T11:48:21.048Z,101053.81
2022-10-05T11:51:04.589Z,101069.50
2022-10-05T11:53:46.785Z,101059.22
2022-10-05T11:56:20.156Z,101045.22
2022-10-05T11:58:56.548Z,101047.94
2022-10-05T12:01:32.402Z,101053.66
2022-10-05T12:04:28.377Z,101045.41
2022-10-05T12:07:09.986Z,101038.97
2022-10-05T12:10:21.686Z,101029.84
2022-10-05T12:13:11.396Z,101025.66
2022-10-05T12:16:02.859Z,101024.09
2022-10-05T12:18:34.002Z,101024.97
2022-10-05T12:21:27.690Z,101025.16
2022-10-05T12:24:06.256Z,101026.13
2022-10-05T12:26:37.977Z,101021.41
2022-10-05T12:29:16.954Z,101016.47
2022-10-05T12:31:49.642Z,101020.63
2022-10-05T12:34:34.653Z,101025.56
2022-10-05T12:37:08.138Z,101013.41
2022-10-05T12:39:59.434Z,101008.94
2022-10-05T12:42:42.062Z,101011.19
2022-10-05T12:45:30.214Z,101010.59
2022-10-05T12:48:12.197Z,101019.94
2022-10-05T12:50:43.441Z,101013.94
2022-10-05T12:53:29.058Z,101015.78
2022-10-05T12:56:08.920Z,101024.16
2022-10-05T12:58:54.515Z,101019.28
2022-10-05T13:01:34.210Z,101020.50
2022-10-05T13:04:12.274Z,101019.59
2022-10-05T13:07:05.841Z,101029.25
2022-10-05T13:09:54.621Z,101028.88
2022-10-05T13:12:36.460Z,101033.28
2022-10-05T13:15:10.736Z,101027.22
2022-10-05T13:18:03.097Z,101028.44
2022-10-05T13:20:38.896Z,101042.88
2022-10-05T13:23:24.325Z,101056.63
2022-10-05T13:26:03.490Z,101057.88
2022-10-05T13:28:42.139Z,101059.34
2022-10-05T13:31:21.789Z,101054.91
2022-10-05T13:34:18.757Z,101068.63
2022-10-05T13:37:11.673Z,101080.31
2022-10-05T13:40:08.066Z,101087.31
2022-10-05T13:43:09.534Z,101087.94
2022-10-05T13:45:55.681Z,101091.59
2022-10-05T13:48:57.933Z,101103.16
2022-10-05T13:51:30.119Z,101110.34
2022-10-05T13:54:21.533Z,101117.81
2022-10-05T13:56:58.748Z,101131.47
2022-10-05T13:59:35.561Z,101127.22
2022-10-05T14:02:10.192Z,101124.03
2022-10-05T14:04:58.467Z,101132.09
2022-10-05T14:07:34.238Z,101133.66
2022-10-05T14:10:02.335Z,101130.13
2022-10-05T14:12:29.038Z,101130.94
2022-10-05T14:14:57.941Z,101140.00
2022-10-05T14:17:33.589Z,101131.44
2022-10-05T14:20:02.109Z,101144.50
2022-10-05T14:22:29.405Z,101145.31
2022-10-05T14:25:13.794Z,101152.34
2022-10-05T14:28:24.258Z,101167.28
2022-10-05T14:30:59.517Z,101157.03
2022-10-05T14:33:29.788Z,101168.06
2022-10-05T14:35:57.848Z,101162.69
2022-10-05T14:38:49.077Z,101160.22
2022-10-05T14:41:18.671Z,101169.00
2022-10-05T14:44:02.335Z,101161.06
2022-10-05T14:46:32.800Z,101175.19
2022-10-05T14:49:23.151Z,101168.28
2022-10-05T14:51:54.508Z,101163.06
2022-10-05T14:54:36.446Z,101173.28
2022-10-05T14:57:18.065Z,101167.50
2022-10-05T15:00:04.140Z,101163.91
2022-10-05T15:02:44.989Z,101155.78
2022-10-05T15:05:42.198Z,101158.16
2022-10-05T15:08:11.816Z,101159.56
2022-10-05T15:10:49.879Z,101153.78
2022-10-05T15:13:19.701Z,101165.53
2022-10-05T15:15:50.673Z,101158.63
2022-10-05T15:18:40.771Z,101154.78
2022-10-05T15:21:24.060Z,101154.03
2022-10-05T15:23:55.235Z,101149.50
2022-10-05T15:26:59.788Z,101149.13
2022-10-05T15:29:42.873Z,101145.75
2022-10-05T15:32:24.825Z,101151.66
2022-10-05T15:35:28.915Z,101147.53
2022-10-05T15:38:21.269Z,101147.97
2022-10-05T15:40:59.133Z,101153.59
2022-10-05T15:43:26.518Z,101152.88
2022-10-05T15:46:08.671Z,101147.00
2022-10-05T15:48:45.474Z,101143.13
2022-10-05T15:51:40.728Z,101154.56
2022-10-05T15:54:46.974Z,101154.00
2022-10-05T15:57:26.009Z,101153.25
2022-10-05T16:00:02.104Z,101157.06
2022-10-05T16:02:39.876Z,101163.16
2022-10-05T16:05:46.787Z,101162.84
2022-10-05T16:08:51.478Z,101153.03
2022-10-05T16:11:31.999Z,101169.31
2022-10-05T16:14:28.112Z,101171.09
2022-10-05T16:17:28.679Z,101179.25
2022-10-05T16:20:33.136Z,101186.41
2022-10-05T16:23:47.779Z,101186.72
2022-10-05T16:26:32.816Z,101183.78
2022-10-05T16:29:30.253Z,101184.19
2022-10-05T16:32:07.704Z,101185.97
2022-10-05T16:34:54.452Z,101176.84
2022-10-05T16:37:44.371Z,101180.56
2022-10-05T16:40:36.163Z,101189.16
2022-10-05T16:43:21.623Z,101202.25
2022-10-05T16:46:01.302Z,101191.03
2022-10-05T16:48:44.896Z,101191.66
2022-10-05T16:51:24.122Z,101187.34
2022-10-05T16:54:20.919Z,101197.38
2022-10-05T16:57:01.354Z,101207.34
2022-10-05T16:59:34.201Z,101211.50
2022-10-05T17:02:19.075Z,101213.94
2022-10-05T17:05:07.009Z,101214.56
2022-10-05T17:07:56.784Z,101219.22
2022-10-05T17:10:37.675Z,101210.69
2022-10-05T17:13:13.618Z,101215.22
2022-10-05T17:16:18.098Z,101220.34
2022-10-05T17:19:15.573Z,101218.00
2022-10-05T17:22:00.742Z,101220.97
2022-10-05T17:24:52.539Z,101221.03
2022-10-05T17:27:52.498Z,101230.50
2022-10-05T17:30:36.272Z,101232.59
2022-10-05T17:33:14.070Z,101223.72
2022-10-05T17:35:50.846Z,101230.06
2022-10-05T17:38:30.773Z,101234.06
2022-10-05T17:41:00.693Z,101236.66
2022-10-05T17:43:30.751Z,101247.94
2022-10-05T17:45:58.852Z,101256.75
2022-10-05T17:48:48.452Z,101264.78
2022-10-05T17:51:59.729Z,101263.09
2022-10-05T17:55:08.786Z,101267.06
2022-10-05T17:57:36.886Z,101272.50
2022-10-05T18:00:43.892Z,101274.53
2022-10-05T18:03:39.235Z,101280.78
2022-10-05T18:06:24.884Z,101284.66
2022-10-05T18:09:22.830Z,101285.44
2022-10-05T18:12:12.706Z,101291.59
2022-10-05T18:15:00.684Z,101289.56
2022-10-05T18:17:47.454Z,101289.56
2022-10-05T18:20:32.618Z,101296.94
2022-10-05T18:23:10.062Z,101297.09
2022-10-05T18:25:48.602Z,101296.56
2022-10-05T18:28:39.377Z,101291.59
2022-10-05T18:31:40.569Z,101296.72
2022-10-05T18:34:26.485Z,101297.00
2022-10-05T18:37:21.579Z,101294.13
2022-10-05T18:40:17.995Z,101306.56
2022-10-05T18:42:52.941Z,101314.78
2022-10-05T18:45:27.279Z,101314.81
2022-10-05T18:48:20.528Z,101313.84
2022-10-05T18:50:47.525Z,101328.97
2022-10-05T18:53:18.201Z,101318.84
2022-10-05T18:55:48.876Z,101312.84
2022-10-05T18:58:26.505Z,101337.69
2022-10-05T19:01:00.414Z,101339.63
2022-10-05T19:03:38.197Z,101333.31
2022-10-05T19:06:08.331Z,101327.88
2022-10-05T19:08:56.997Z,101334.06
2022-10-05T19:11:46.782Z,101336.56
2022-10-05T19:14:28.764Z,101336.72
2022-10-05T19:17:25.078Z,101342.53
2022-10-05T19:20:24.465Z,101347.31
2022-10-05T19:22:54.238Z,101354.75
2022-10-05T19:25:42.587Z,101351.88
2022-10-05T19:28:27.591Z,101361.53
2022-10-05T19:31:12.696Z,101364.59
2022-10-05T19:33:54.296Z,101373.28
2022-10-05T19:36:26.682Z,101375.66
2022-10-05T19:39:07.948Z,101378.97
2022-10-05T19:41:58.499Z,101389.81
2022-10-05T19:44:39.229Z,101422.78
2022-10-05T19:47:17.445Z,101467.84
2022-10-05T19:49:55.554Z,101468.41
2022-10-05T19:52:25.825Z,101471.38
2022-10-05T19:55:05.128Z,101484.75
2022-10-05T19:57:32.801Z,101480.34
2022-10-05T19:59:59.854Z,101481.25
2022-10-05T20:02:28.163Z,101495.22
2022-10-05T20:05:06.292Z,101498.53
2022-10-05T20:07:34.417Z,101513.22
2022-10-05T20:10:22.849Z,101501.84
2022-10-05T20:12:51.018Z,101490.81
2022-10-05T20:15:42.073Z,101493.19
2022-10-05T20:18:56.511Z,101485.13
2022-10-05T20:21:49.699Z,101508.06
2022-10-05T20:24:18.823Z,101527.69
2022-10-05T20:27:02.338Z,101527.91
2022-10-05T20:29:30.043Z,101532.75
2022-10-05T20:31:57.004Z,101534.13
2022-10-05T20:34:24.729Z,101536.44
2022-10-05T20:36:51.695Z,101543.50
2022-10-05T20:39:19.335Z,101547.47
2022-10-05T20:41:46.215Z,101551.22
2022-10-05T20:44:13.265Z,101557.13
2022-10-05T20:46:42.889Z,101569.56
2022-10-05T20:49:13.109Z,101584.84
2022-10-05T20:51:40.258Z,101589.25
2022-10-05T20:54:07.728Z,101590.59
2022-10-05T20:56:34.900Z,101594.94
2022-10-05T20:59:01.787Z,101614.75
2022-10-05T21:01:30.315Z,101606.69
2022-10-05T21:03:57.401Z,101609.13
2022-10-05T21:06:29.936Z,101624.78
2022-10-05T21:08:57.492Z,101629.59
2022-10-05T21:11:24.275Z,101623.16
2022-10-05T21:13:51.372Z,101626.16
2022-10-05T21:16:19.307Z,101639.38
2022-10-05T21:18:47.856Z,101639.59
2022-10-05T21:21:17.103Z,101629.03
2022-10-05T21:23:47.805Z,101653.56
2022-10-05T21:26:15.263Z,101660.41
2022-10-05T21:28:41.966Z,101662.50
2022-10-05T21:31:09.290Z,101669.63
2022-10-05T21:33:36.797Z,101678.28
2022-10-05T21:36:03.630Z,101676.88
2022-10-05T21:38:30.663Z,101682.47
2022-10-05T21:40:57.565Z,101687.16
2022-10-05T21:43:24.570Z,101696.53
2022-10-05T21:45:51.829Z,101699.88
2022-10-05T21:48:18.646Z,101685.28
2022-10-05T21:50:45.784Z,101711.00
2022-10-05T21:53:15.029Z,101702.81
2022-10-05T21:55:43.673Z,101699.88
2022-10-05T21:58:10.957Z,101710.28
2022-10-05T22:00:37.755Z,101707.50
2022-10-05T22:03:04.523Z,101716.34
2022-10-05T22:05:32.258Z,101726.81
2022-10-05T22:07:58.963Z,101732.28
2022-10-05T22:10:25.817Z,101729.53
2022-10-05T22:12:52.443Z,101734.63
2022-10-05T22:15:19.129Z,101746.72
2022-10-05T22:17:46.188Z,101748.88
2022-10-05T22:20:14.320Z,101754.31
2022-10-05T22:22:41.163Z,101758.34
2022-10-05T22:25:08.392Z,101769.09
2022-10-05T22:27:36.097Z,101774.63
2022-10-05T22:30:03.773Z,101773.56
2022-10-05T22:32:30.526Z,101785.66
2022-10-05T22:34:58.033Z,101792.81
2022-10-05T22:37:24.713Z,101796.69
2022-10-05T22:39:51.429Z,101804.13
2022-10-05T22:42:18.104Z,101811.72
2022-10-05T22:44:44.740Z,101806.75
2022-10-05T22:47:11.811Z,101798.47
2022-10-05T22:49:38.419Z,101820.66
2022-10-05T22:52:05.112Z,101817.75
2022-10-05T22:54:35.355Z,101823.59
2022-10-05T22:57:03.951Z,101835.19
2022-10-05T22:59:31.082Z,101835.81
2022-10-05T23:01:57.855Z,101841.28
2022-10-05T23:04:24.716Z,101851.00
2022-10-05T23:06:51.808Z,101855.69
2022-10-05T23:09:18.876Z,101862.09
2022-10-05T23:11:52.012Z,101862.38
2022-10-05T23:14:21.974Z,101863.13
2022-10-05T23:16:48.793Z,101859.97
2022-10-05T23:19:15.895Z,101875.25
2022-10-05T23:21:42.615Z,101865.22
2022-10-05T23:24:09.214Z,101873.44
2022-10-05T23:26:35.854Z,101874.81
2022-10-05T23:29:02.618Z,101888.81
2022-10-05T23:31:31.111Z,101888.56
2022-10-05T23:33:57.789Z,101894.94
2022-10-05T23:36:27.572Z,101902.31
2022-10-05T23:38:54.499Z,101909.66
2022-10-05T23:41:21.298Z,101911.78
2022-10-05T23:43:48.259Z,101905.38
2022-10-05T23:46:15.382Z,101924.31
2022-10-05T23:48:42.028Z,101923.69
2022-10-05T23:51:10.984Z,101928.03
2022-10-05T23:53:37.907Z,101934.03
2022-10-05T23:56:05.271Z,101940.47
2022-10-05T23:58:32.214Z,101946.41
